createdAt,value
2018-11-10T00:02:04.347Z,95600.95
2018-11-10T00:04:30.336Z,95603.85
2018-11-10T00:06:56.345Z,95598.75
2018-11-10T00:09:22.357Z,95601.91
2018-11-10T00:11:48.361Z,95602.88
2018-11-10T00:14:14.347Z,95600.70
2018-11-10T00:16:40.402Z,95606.38
2018-11-10T00:19:06.374Z,95599.84
2018-11-10T00:21:32.353Z,95603.78
2018-11-10T00:23:58.406Z,95605.16
2018-11-10T00:26:24.392Z,95600.82
2018-11-10T00:28:50.400Z,95601.95
2018-11-10T00:31:16.417Z,95601.23
2018-11-10T00:33:42.422Z,95598.22
2018-11-10T00:36:08.422Z,95598.22
2018-11-10T00:38:34.429Z,95600.75
2018-11-10T00:41:00.445Z,95597.59
2018-11-10T00:43:26.429Z,95598.97
2018-11-10T00:45:52.411Z,95607.23
2018-11-10T00:48:18.422Z,95601.09
2018-11-10T00:50:44.434Z,95601.47
2018-11-10T00:53:10.422Z,95599.12
2018-11-10T00:55:36.436Z,95598.34
2018-11-10T00:58:02.416Z,95606.00
2018-11-10T01:00:28.416Z,95597.94
2018-11-10T01:02:54.412Z,95596.72
2018-11-10T01:05:20.417Z,95598.50
2018-11-10T01:07:46.425Z,95594.94
2018-11-10T01:10:12.440Z,95600.28
2018-11-10T01:12:38.454Z,95596.91
2018-11-10T01:15:04.435Z,95594.38
2018-11-10T01:17:30.485Z,95592.38
2018-11-10T01:19:56.472Z,95594.31
2018-11-10T01:22:22.486Z,95594.16
2018-11-10T01:24:48.469Z,95586.88
2018-11-10T01:27:14.478Z,95588.00
2018-11-10T01:29:40.473Z,95585.66
2018-11-10T01:32:06.541Z,95585.66
2018-11-10T01:34:32.519Z,95586.22
2018-11-10T01:36:58.533Z,95583.66
2018-11-10T01:39:24.539Z,95583.31
2018-11-10T01:41:50.525Z,95583.88
2018-11-10T01:44:16.510Z,95583.66
2018-11-10T01:46:42.523Z,95589.56
2018-11-10T01:49:08.520Z,95587.78
2018-11-10T01:51:34.529Z,95586.97
2018-11-10T01:54:00.539Z,95581.31
2018-11-10T01:56:26.524Z,95587.78
2018-11-10T01:58:52.502Z,95584.22
2018-11-10T02:01:18.491Z,95588.34
2018-11-10T02:03:44.475Z,95580.66
2018-11-10T02:06:10.456Z,95578.72
2018-11-10T02:08:36.468Z,95579.28
2018-11-10T02:11:02.483Z,95571.63
2018-11-10T02:13:28.492Z,95572.25
2018-11-10T02:15:54.480Z,95578.50
2018-11-10T02:18:20.461Z,95577.12
2018-11-10T02:20:46.506Z,95577.69
2018-11-10T02:23:12.630Z,95580.44
2018-11-10T02:25:38.618Z,95579.87
2018-11-10T02:28:04.610Z,95582.78
2018-11-10T02:30:30.620Z,95580.84
2018-11-10T02:32:56.609Z,95579.63
2018-11-10T02:35:22.594Z,95582.78
2018-11-10T02:37:48.606Z,95585.53
2018-11-10T02:40:14.591Z,95587.47
2018-11-10T02:42:40.602Z,95580.59
2018-11-10T02:45:06.588Z,95583.75
2018-11-10T02:47:32.582Z,95582.38
2018-11-10T02:49:58.586Z,95590.22
2018-11-10T02:52:24.610Z,95585.12
2018-11-10T02:54:50.590Z,95591.59
2018-11-10T02:57:16.767Z,95584.31
2018-11-10T02:59:42.781Z,95587.47
2018-11-10T03:02:08.792Z,95587.66
2018-11-10T03:04:34.797Z,95591.38
2018-11-10T03:07:00.786Z,95594.94
2018-11-10T03:09:26.797Z,95597.44
2018-11-10T03:11:52.804Z,95598.25
2018-11-10T03:14:18.813Z,95600.75
2018-11-10T03:16:44.797Z,95604.72
2018-11-10T03:19:10.810Z,95600.19
2018-11-10T03:21:36.789Z,95601.75
2018-11-10T03:24:02.780Z,95598.41
2018-11-10T03:26:28.762Z,95596.25
2018-11-10T03:28:54.778Z,95597.63
2018-11-10T03:31:20.758Z,95592.69
2018-11-10T03:33:46.741Z,95595.84
2018-11-10T03:36:12.782Z,95597.22
2018-11-10T03:38:38.791Z,95601.75
2018-11-10T03:41:04.777Z,95598.59
2018-11-10T03:43:30.790Z,95598.59
2018-11-10T03:45:56.792Z,95602.47
2018-11-10T03:48:22.804Z,95597.78
2018-11-10T03:50:48.805Z,95595.44
2018-11-10T03:53:14.788Z,95593.25
2018-11-10T03:55:40.805Z,95588.72
2018-11-10T03:58:06.786Z,95596.00
2018-11-10T04:00:32.772Z,95590.91
2018-11-10T04:02:58.758Z,95590.09
2018-11-10T04:05:24.739Z,95593.44
2018-11-10T04:07:50.722Z,95596.74
2018-11-10T04:10:16.703Z,95597.16
2018-11-10T04:12:42.720Z,95597.16
2018-11-10T04:15:08.724Z,95597.94
2018-11-10T04:17:34.708Z,95599.09
2018-11-10T04:20:00.696Z,95601.69
2018-11-10T04:22:26.679Z,95596.19
2018-11-10T04:24:52.725Z,95595.12
2018-11-10T04:27:18.712Z,95599.65
2018-11-10T04:29:44.726Z,95594.31
2018-11-10T04:32:10.716Z,95601.44
2018-11-10T04:34:36.729Z,95598.69
2018-11-10T04:37:02.712Z,95596.09
2018-11-10T04:39:28.717Z,95595.84
2018-11-10T04:41:54.722Z,95587.18
2018-11-10T04:44:20.755Z,95595.94
2018-11-10T04:46:46.742Z,95592.78
2018-11-10T04:49:12.754Z,95594.97
2018-11-10T04:51:38.766Z,95592.62
2018-11-10T04:54:04.743Z,95591.81
2018-11-10T04:56:30.759Z,95594.47
2018-11-10T04:58:56.764Z,95596.47
2018-11-10T05:01:22.850Z,95597.44
2018-11-10T05:03:48.809Z,95595.31
2018-11-10T05:06:14.816Z,95595.56
2018-11-10T05:08:40.805Z,95596.94
2018-11-10T05:11:06.793Z,95595.97
2018-11-10T05:13:32.773Z,95598.16
2018-11-10T05:15:58.755Z,95596.78
2018-11-10T05:18:24.736Z,95599.34
2018-11-10T05:20:50.746Z,95606.47
2018-11-10T05:23:16.754Z,95602.50
2018-11-10T05:25:42.784Z,95606.22
2018-11-10T05:28:08.800Z,95611.16
2018-11-10T05:30:34.804Z,95605.72
2018-11-10T05:33:00.791Z,95608.28
2018-11-10T05:35:26.779Z,95606.69
2018-11-10T05:37:52.761Z,95600.84
2018-11-10T05:40:18.769Z,95600.44
2018-11-10T05:42:44.785Z,95598.28
2018-11-10T05:45:10.812Z,95592.84
2018-11-10T05:47:36.801Z,95597.19
2018-11-10T05:50:02.783Z,95600.09
2018-11-10T05:52:28.769Z,95603.44
2018-11-10T05:54:54.959Z,95599.12
2018-11-10T05:57:21.026Z,95606.41
2018-11-10T05:59:46.930Z,95609.00
2018-11-10T06:02:12.959Z,95607.78
2018-11-10T06:04:38.964Z,95606.97
2018-11-10T06:07:04.940Z,95613.13
2018-11-10T06:09:31.012Z,95611.50
2018-11-10T06:11:56.984Z,95609.41
2018-11-10T06:14:22.994Z,95612.73
2018-11-10T06:16:49.003Z,95613.91
2018-11-10T06:19:15.012Z,95616.84
2018-11-10T06:21:41.022Z,95616.44
2018-11-10T06:24:07.029Z,95616.51
2018-11-10T06:26:33.016Z,95622.75
2018-11-10T06:28:59.002Z,95622.34
2018-11-10T06:31:24.984Z,95620.97
2018-11-10T06:33:51.034Z,95623.54
2018-11-10T06:36:17.016Z,95625.32
2018-11-10T06:38:43.021Z,95631.41
2018-11-10T06:41:09.095Z,95625.09
2018-11-10T06:43:35.064Z,95634.54
2018-11-10T06:46:01.074Z,95635.28
2018-11-10T06:48:27.095Z,95639.26
2018-11-10T06:50:53.102Z,95634.16
2018-11-10T06:53:19.106Z,95636.91
2018-11-10T06:55:45.095Z,95637.48
2018-11-10T06:58:11.098Z,95644.76
2018-11-10T07:00:37.088Z,95637.48
2018-11-10T07:03:03.098Z,95645.54
2018-11-10T07:05:29.130Z,95641.04
2018-11-10T07:07:55.178Z,95641.66
2018-11-10T07:10:21.181Z,95634.61
2018-11-10T07:12:47.173Z,95637.29
2018-11-10T07:15:13.157Z,95635.76
2018-11-10T07:17:39.273Z,95628.13
2018-11-10T07:20:05.215Z,95639.07
2018-11-10T07:22:31.208Z,95628.32
2018-11-10T07:24:57.256Z,95641.82
2018-11-10T07:27:23.204Z,95637.20
2018-11-10T07:29:49.191Z,95633.98
2018-11-10T07:32:15.215Z,95634.29
2018-11-10T07:34:41.268Z,95633.77
2018-11-10T07:37:07.478Z,95622.42
2018-11-10T07:39:33.458Z,95624.86
2018-11-10T07:41:59.466Z,95622.73
2018-11-10T07:44:25.483Z,95626.30
2018-11-10T07:46:51.490Z,95620.95
2018-11-10T07:49:17.551Z,95621.30
2018-11-10T07:51:43.691Z,95621.86
2018-11-10T07:54:10.961Z,95616.85
2018-11-10T07:56:36.931Z,95618.89
2018-11-10T07:59:02.965Z,95618.95
2018-11-10T08:01:28.948Z,95615.39
2018-11-10T08:03:54.958Z,95613.86
2018-11-10T08:06:20.946Z,95618.83
2018-11-10T08:08:46.955Z,95616.33
2018-11-10T08:11:12.937Z,95617.30
2018-11-10T08:13:38.947Z,95617.70
2018-11-10T08:16:04.950Z,95613.73
2018-11-10T08:18:31.026Z,95616.11
2018-11-10T08:20:56.952Z,95618.23
2018-11-10T08:23:22.946Z,95614.98
2018-11-10T08:25:48.935Z,95618.98
2018-11-10T08:28:15.819Z,95617.39
2018-11-10T08:30:41.789Z,95614.05
2018-11-10T08:33:07.783Z,95617.11
2018-11-10T08:35:35.004Z,95615.55
2018-11-10T08:38:01.001Z,95614.17
2018-11-10T08:40:27.013Z,95615.61
2018-11-10T08:42:53.033Z,95612.86
2018-11-10T08:45:19.005Z,95612.14
2018-11-10T08:47:44.986Z,95614.48
2018-11-10T08:50:10.971Z,95612.61
2018-11-10T08:52:36.951Z,95608.08
2018-11-10T08:55:02.972Z,95614.20
2018-11-10T08:57:29.184Z,95603.28
2018-11-10T08:59:55.142Z,95599.09
2018-11-10T09:02:21.159Z,95597.50
2018-11-10T09:04:47.176Z,95599.81
2018-11-10T09:07:13.196Z,95591.97
2018-11-10T09:09:39.219Z,95592.94
2018-11-10T09:12:07.432Z,95591.50
2018-11-10T09:14:33.407Z,95591.72
2018-11-10T09:16:59.401Z,95591.56
2018-11-10T09:19:25.383Z,95590.53
2018-11-10T09:21:51.465Z,95578.02
2018-11-10T09:24:17.391Z,95578.84
2018-11-10T09:26:43.396Z,95582.91
2018-11-10T09:29:09.443Z,95578.77
2018-11-10T09:31:35.430Z,95578.90
2018-11-10T09:34:01.553Z,95568.39
2018-11-10T09:36:27.651Z,95565.70
2018-11-10T09:38:53.872Z,95570.02
2018-11-10T09:41:19.869Z,95560.77
2018-11-10T09:43:45.883Z,95560.20
2018-11-10T09:46:11.894Z,95563.19
2018-11-10T09:48:37.902Z,95559.63
2018-11-10T09:51:03.942Z,95560.34
2018-11-10T09:53:29.939Z,95556.84
2018-11-10T09:55:55.939Z,95554.59
2018-11-10T09:58:21.943Z,95547.05
2018-11-10T10:00:47.960Z,95543.33
2018-11-10T10:03:14.071Z,95542.58
2018-11-10T10:05:40.057Z,95542.79
2018-11-10T10:08:06.074Z,95539.06
2018-11-10T10:10:32.076Z,95530.72
2018-11-10T10:12:58.063Z,95525.02
2018-11-10T10:15:24.052Z,95520.55
2018-11-10T10:17:50.064Z,95520.48
2018-11-10T10:20:16.064Z,95515.84
2018-11-10T10:22:42.057Z,95513.21
2018-11-10T10:25:08.344Z,95518.50
2018-11-10T10:27:34.339Z,95508.27
2018-11-10T10:30:00.329Z,95507.24
2018-11-10T10:32:26.334Z,95506.11
2018-11-10T10:34:52.407Z,95505.71
2018-11-10T10:37:18.393Z,95500.20
2018-11-10T10:39:44.410Z,95496.42
2018-11-10T10:42:10.366Z,95496.75
2018-11-10T10:44:36.355Z,95490.33
2018-11-10T10:47:02.344Z,95495.73
2018-11-10T10:49:28.328Z,95485.64
2018-11-10T10:51:54.311Z,95482.32
2018-11-10T10:54:20.330Z,95483.05
2018-11-10T10:56:46.325Z,95476.69
2018-11-10T10:59:12.322Z,95476.11
2018-11-10T11:01:38.341Z,95474.33
2018-11-10T11:04:04.466Z,95464.89
2018-11-10T11:06:30.448Z,95462.13
2018-11-10T11:08:56.481Z,95456.34
2018-11-10T11:11:22.473Z,95453.67
2018-11-10T11:13:48.496Z,95450.43
2018-11-10T11:16:14.507Z,95446.95
2018-11-10T11:18:40.876Z,95444.04
2018-11-10T11:21:06.838Z,95439.09
2018-11-10T11:23:32.908Z,95436.96
2018-11-10T11:25:58.916Z,95436.40
2018-11-10T11:28:24.933Z,95437.07
2018-11-10T11:30:50.911Z,95432.59
2018-11-10T11:33:16.895Z,95425.60
2018-11-10T11:35:42.875Z,95427.30
2018-11-10T11:38:08.889Z,95423.98
2018-11-10T11:40:34.875Z,95428.22
2018-11-10T11:43:00.881Z,95423.44
2018-11-10T11:45:26.866Z,95419.30
2018-11-10T11:47:52.894Z,95419.44
2018-11-10T11:50:18.864Z,95422.97
2018-11-10T11:52:44.878Z,95418.33
2018-11-10T11:55:10.862Z,95415.01
2018-11-10T11:57:36.871Z,95407.41
2018-11-10T12:00:02.866Z,95410.98
2018-11-10T12:02:28.901Z,95411.30
2018-11-10T12:04:54.893Z,95403.03
2018-11-10T12:07:20.876Z,95402.63
2018-11-10T12:09:46.885Z,95399.76
2018-11-10T12:12:12.890Z,95396.30
2018-11-10T12:14:38.871Z,95397.72
2018-11-10T12:17:04.876Z,95398.37
2018-11-10T12:19:30.840Z,95394.05
2018-11-10T12:21:56.832Z,95395.36
2018-11-10T12:24:22.829Z,95393.84
2018-11-10T12:26:48.896Z,95392.92
2018-11-10T12:29:14.800Z,95390.05
2018-11-10T12:31:40.786Z,95392.23
2018-11-10T12:34:06.798Z,95388.48
2018-11-10T12:36:32.828Z,95388.98
2018-11-10T12:38:58.957Z,95394.48
2018-11-10T12:41:24.867Z,95391.10
2018-11-10T12:43:50.869Z,95384.88
2018-11-10T12:46:16.896Z,95390.09
2018-11-10T12:48:42.904Z,95389.42
2018-11-10T12:51:08.876Z,95387.39
2018-11-10T12:53:34.885Z,95389.63
2018-11-10T12:56:00.901Z,95381.00
2018-11-10T12:58:26.888Z,95378.66
2018-11-10T13:00:52.938Z,95376.19
2018-11-10T13:03:18.924Z,95376.19
2018-11-10T13:05:44.922Z,95377.80
2018-11-10T13:08:10.953Z,95376.31
2018-11-10T13:10:36.973Z,95377.90
2018-11-10T13:13:02.954Z,95370.65
2018-11-10T13:15:28.957Z,95376.67
2018-11-10T13:17:54.961Z,95373.29
2018-11-10T13:20:21.027Z,95370.60
2018-11-10T13:22:46.963Z,95377.50
2018-11-10T13:25:12.982Z,95376.02
2018-11-10T13:27:38.962Z,95368.55
2018-11-10T13:30:04.983Z,95373.28
2018-11-10T13:32:30.993Z,95375.59
2018-11-10T13:34:56.998Z,95374.11
2018-11-10T13:37:22.989Z,95378.51
2018-11-10T13:39:49.025Z,95374.81
2018-11-10T13:42:15.029Z,95368.55
2018-11-10T13:44:40.968Z,95363.69
2018-11-10T13:47:06.980Z,95365.23
2018-11-10T13:49:32.969Z,95363.69
2018-11-10T13:51:59.341Z,95364.09
2018-11-10T13:54:24.974Z,95361.55
2018-11-10T13:56:50.956Z,95364.47
2018-11-10T13:59:16.988Z,95365.39
2018-11-10T14:01:43.011Z,95365.80
2018-11-10T14:04:08.986Z,95372.23
2018-11-10T14:06:34.978Z,95364.28
2018-11-10T14:09:00.988Z,95361.56
2018-11-10T14:11:26.977Z,95363.97
2018-11-10T14:13:52.992Z,95361.56
2018-11-10T14:16:18.996Z,95361.77
2018-11-10T14:18:45.015Z,95363.92
2018-11-10T14:21:22.222Z,95358.60
2018-11-10T14:23:48.592Z,95363.09
2018-11-10T14:26:24.418Z,95364.58
2018-11-10T14:28:51.498Z,95366.27
2018-11-10T14:31:19.367Z,95363.92
2018-11-10T14:33:45.932Z,95364.44
2018-11-10T14:36:12.319Z,95368.31
2018-11-10T14:38:39.016Z,95374.60
2018-11-10T14:41:05.668Z,95369.59
2018-11-10T14:43:32.626Z,95362.87
2018-11-10T14:45:59.827Z,95372.51
2018-11-10T14:48:26.244Z,95376.14
2018-11-10T14:50:52.780Z,95376.64
2018-11-10T14:53:19.789Z,95370.97
2018-11-10T14:55:46.071Z,95373.42
2018-11-10T14:58:12.673Z,95373.48
2018-11-10T15:00:39.970Z,95374.05
2018-11-10T15:03:07.928Z,95376.80
2018-11-10T15:05:34.544Z,95380.52
2018-11-10T15:08:00.688Z,95381.53
2018-11-10T15:10:29.496Z,95379.75
2018-11-10T15:12:57.242Z,95381.99
2018-11-10T15:15:29.155Z,95382.96
2018-11-10T15:18:05.600Z,95381.18
2018-11-10T15:20:33.785Z,95384.91
2018-11-10T15:23:01.618Z,95382.91
2018-11-10T15:25:27.676Z,95389.39
2018-11-10T15:27:53.644Z,95387.66
2018-11-10T15:30:19.664Z,95386.85
2018-11-10T15:32:45.649Z,95390.02
2018-11-10T15:35:11.636Z,95395.67
2018-11-10T15:37:37.703Z,95389.61
2018-11-10T15:40:04.564Z,95393.98
2018-11-10T15:42:33.012Z,95395.52
2018-11-10T15:44:59.021Z,95395.31
2018-11-10T15:47:25.009Z,95397.66
2018-11-10T15:49:51.018Z,95399.25
2018-11-10T15:52:23.467Z,95400.06
2018-11-10T15:54:46.010Z,95398.47
2018-11-10T15:57:12.080Z,95398.06
2018-11-10T15:59:38.029Z,95401.23
2018-11-10T16:02:04.262Z,95402.98
2018-11-10T16:04:30.272Z,95399.84
2018-11-10T16:06:56.338Z,95402.60
2018-11-10T16:09:22.408Z,95408.48
2018-11-10T16:11:48.306Z,95409.14
2018-11-10T16:14:14.308Z,95407.36
2018-11-10T16:16:40.299Z,95413.43
2018-11-10T16:19:06.302Z,95412.14
2018-11-10T16:21:32.317Z,95417.05
2018-11-10T16:23:58.333Z,95409.77
2018-11-10T16:26:24.314Z,95419.30
2018-11-10T16:28:50.295Z,95447.00
2018-11-10T16:31:16.294Z,95423.99
2018-11-10T16:33:42.307Z,95425.97
2018-11-10T16:36:08.297Z,95423.22
2018-11-10T16:38:36.719Z,95429.70
2018-11-10T16:41:02.708Z,95427.51
2018-11-10T16:43:28.709Z,95428.53
2018-11-10T16:45:54.777Z,95430.10
2018-11-10T16:48:20.858Z,95427.40
2018-11-10T16:50:48.769Z,95434.23
2018-11-10T16:53:14.799Z,95436.18
2018-11-10T16:55:40.766Z,95432.41
2018-11-10T16:58:13.400Z,95435.16
2018-11-10T17:00:39.361Z,95432.56
2018-11-10T17:03:05.438Z,95441.18
2018-11-10T17:05:31.480Z,95438.64
2018-11-10T17:07:57.466Z,95442.96
2018-11-10T17:10:23.444Z,95436.70
2018-11-10T17:12:49.470Z,95446.08
2018-11-10T17:15:15.526Z,95454.80
2018-11-10T17:17:41.495Z,95460.06
2018-11-10T17:20:07.547Z,95459.04
2018-11-10T17:22:33.600Z,95461.98
2018-11-10T17:24:59.516Z,95465.04
2018-11-10T17:27:25.528Z,95464.23
2018-11-10T17:29:51.538Z,95470.66
2018-11-10T17:32:17.561Z,95463.55
2018-11-10T17:34:43.569Z,95471.00
2018-11-10T17:37:09.571Z,95470.55
2018-11-10T17:39:35.677Z,95472.73
2018-11-10T17:42:01.649Z,95471.58
2018-11-10T17:44:27.635Z,95467.58
2018-11-10T17:46:53.642Z,95476.92
2018-11-10T17:49:19.626Z,95479.52
2018-11-10T17:51:45.633Z,95485.12
2018-11-10T17:54:11.619Z,95487.53
2018-11-10T17:56:37.673Z,95486.72
2018-11-10T17:59:03.648Z,95487.38
2018-11-10T18:01:29.857Z,95488.84
2018-11-10T18:03:55.905Z,95488.84
2018-11-10T18:06:21.828Z,95490.42
2018-11-10T18:08:47.859Z,95487.13
2018-11-10T18:11:13.943Z,95481.75
2018-11-10T18:13:39.955Z,95488.45
2018-11-10T18:16:06.056Z,95486.61
2018-11-10T18:18:32.033Z,95485.02
2018-11-10T18:20:58.020Z,95490.69
2018-11-10T18:23:24.006Z,95492.11
2018-11-10T18:25:50.037Z,95500.16
2018-11-10T18:28:16.025Z,95499.19
2018-11-10T18:30:42.035Z,95499.59
2018-11-10T18:33:08.057Z,95499.05
2018-11-10T18:35:34.065Z,95507.86
2018-11-10T18:38:00.054Z,95498.57
2018-11-10T18:40:26.047Z,95505.45
2018-11-10T18:42:52.049Z,95508.16
2018-11-10T18:45:18.032Z,95509.91
2018-11-10T18:47:44.041Z,95508.37
2018-11-10T18:50:10.147Z,95507.75
2018-11-10T18:52:36.167Z,95506.94
2018-11-10T18:55:02.182Z,95506.72
2018-11-10T18:57:28.285Z,95512.39
2018-11-10T18:59:54.224Z,95504.64
2018-11-10T19:02:20.213Z,95508.95
2018-11-10T19:04:46.216Z,95516.16
2018-11-10T19:07:12.213Z,95514.56
2018-11-10T19:09:38.225Z,95521.39
2018-11-10T19:12:04.249Z,95518.36
2018-11-10T19:14:30.229Z,95526.03
2018-11-10T19:16:58.904Z,95528.00
2018-11-10T19:19:24.887Z,95527.66
2018-11-10T19:21:50.881Z,95531.80
2018-11-10T19:24:16.962Z,95530.61
2018-11-10T19:26:43.025Z,95534.68
2018-11-10T19:29:09.017Z,95540.63
2018-11-10T19:31:35.065Z,95539.08
2018-11-10T19:34:01.904Z,95535.52
2018-11-10T19:36:28.547Z,95543.84
2018-11-10T19:38:54.531Z,95545.90
2018-11-10T19:41:20.565Z,95549.34
2018-11-10T19:43:46.569Z,95549.94
2018-11-10T19:46:12.562Z,95550.25
2018-11-10T19:48:38.549Z,95547.75
2018-11-10T19:51:04.809Z,95553.60
2018-11-10T19:53:30.571Z,95550.66
2018-11-10T19:56:02.841Z,95550.66
2018-11-10T19:58:28.851Z,95559.11
2018-11-10T20:00:54.924Z,95560.30
2018-11-10T20:03:20.879Z,95558.92
2018-11-10T20:05:46.897Z,95560.76
2018-11-10T20:08:12.932Z,95556.41
2018-11-10T20:10:38.920Z,95562.48
2018-11-10T20:13:04.926Z,95558.36
2018-11-10T20:15:30.910Z,95560.14
2018-11-10T20:17:56.921Z,95559.83
2018-11-10T20:20:22.930Z,95564.62
2018-11-10T20:22:48.919Z,95568.34
2018-11-10T20:25:14.932Z,95566.71
2018-11-10T20:27:40.941Z,95572.16
2018-11-10T20:30:06.946Z,95578.08
2018-11-10T20:32:33.132Z,95570.84
2018-11-10T20:34:59.117Z,95575.22
2018-11-10T20:37:25.269Z,95582.91
2018-11-10T20:39:51.256Z,95583.88
2018-11-10T20:42:17.273Z,95580.16
2018-11-10T20:44:43.290Z,95580.37
2018-11-10T20:47:09.274Z,95583.29
2018-11-10T20:49:35.292Z,95581.91
2018-11-10T20:52:01.308Z,95581.53
2018-11-10T20:54:27.318Z,95584.10
2018-11-10T20:56:53.322Z,95580.37
2018-11-10T20:59:19.334Z,95585.88
2018-11-10T21:01:45.320Z,95584.16
2018-11-10T21:04:11.350Z,95585.53
2018-11-10T21:06:37.361Z,95585.48
2018-11-10T21:09:03.369Z,95588.42
2018-11-10T21:11:29.378Z,95589.95
2018-11-10T21:13:55.432Z,95593.52
2018-11-10T21:16:21.454Z,95592.70
2018-11-10T21:18:47.477Z,95594.23
2018-11-10T21:21:13.465Z,95595.05
2018-11-10T21:23:39.530Z,95600.56
2018-11-10T21:26:05.517Z,95596.84
2018-11-10T21:28:31.531Z,95600.81
2018-11-10T21:30:57.508Z,95598.05
2018-11-10T21:33:23.590Z,95606.47
2018-11-10T21:35:49.526Z,95603.66
2018-11-10T21:38:15.544Z,95609.98
2018-11-10T21:40:41.557Z,95606.76
2018-11-10T21:43:07.581Z,95609.45
2018-11-10T21:45:33.591Z,95615.45
2018-11-10T21:47:59.609Z,95614.84
2018-11-10T21:50:26.677Z,95621.88
2018-11-10T21:52:52.687Z,95618.09
2018-11-10T21:55:18.697Z,95621.81
2018-11-10T21:57:44.709Z,95626.29
2018-11-10T22:00:10.690Z,95621.53
2018-11-10T22:02:46.143Z,95632.55
2018-11-10T22:05:12.272Z,95620.66
2018-11-10T22:07:38.248Z,95626.01
2018-11-10T22:10:04.496Z,95626.58
2018-11-10T22:12:30.482Z,95626.92
2018-11-10T22:14:56.596Z,95621.16
2018-11-10T22:17:22.617Z,95625.30
2018-11-10T22:19:48.622Z,95626.05
2018-11-10T22:22:14.665Z,95621.41
2018-11-10T22:24:40.651Z,95622.95
2018-11-10T22:27:06.941Z,95625.89
2018-11-10T22:29:32.960Z,95622.32
2018-11-10T22:31:58.963Z,95623.08
2018-11-10T22:34:24.985Z,95625.98
2018-11-10T22:36:50.981Z,95620.89
2018-11-10T22:39:16.985Z,95626.55
2018-11-10T22:41:42.973Z,95628.67
2018-11-10T22:44:08.988Z,95629.08
2018-11-10T22:46:34.994Z,95630.05
2018-11-10T22:49:01.019Z,95630.05
2018-11-10T22:51:27.030Z,95628.05
2018-11-10T22:53:53.010Z,95628.05
2018-11-10T22:56:18.992Z,95625.30
2018-11-10T22:58:44.978Z,95632.11
2018-11-10T23:01:11.023Z,95631.11
2018-11-10T23:03:37.078Z,95638.59
2018-11-10T23:06:03.239Z,95636.74
2018-11-10T23:08:29.216Z,95634.80
2018-11-10T23:10:55.200Z,95629.05
2018-11-10T23:13:21.191Z,95628.48
2018-11-10T23:15:47.174Z,95629.80
2018-11-10T23:18:13.743Z,95634.14
2018-11-10T23:20:39.732Z,95631.17
2018-11-10T23:23:06.515Z,95631.33
2018-11-10T23:25:32.484Z,95632.71
2018-11-10T23:27:58.487Z,95637.43
2018-11-10T23:30:24.469Z,95641.30
2018-11-10T23:32:50.477Z,95645.28
2018-11-10T23:35:16.482Z,95642.53
2018-11-10T23:37:42.513Z,95641.87
2018-11-10T23:40:08.504Z,95640.50
2018-11-10T23:42:34.484Z,95643.44
2018-11-10T23:45:00.497Z,95649.09
2018-11-10T23:47:26.484Z,95650.06
2018-11-10T23:49:52.464Z,95647.31
2018-11-10T23:52:18.467Z,95646.12
2018-11-10T23:54:44.473Z,95649.84
2018-11-10T23:57:10.482Z,95653.41
2018-11-10T23:59:36.486Z,95650.81
